Time;durP1;ratioP1;P1;durP2;ratioP2;P2;SDS_P1;SDS_P2;PMS_P1;PMS_P2;Temp;Humidity;BMP_temperature;BMP_pressure;BME280_temperature;BME280_humidity;BME280_pressure;Samples;Min_cycle;Max_cycle;Signal;HPM_P1;HPM_P2
2021/12/08 00:01:52;;;;;;;36.42;17.15;;;;;;;1.71;69.93;98991.31;5039306;28;20045;-69
2021/12/08 00:04:18;;;;;;;36.17;16.35;;;;;;;1.74;69.71;98985.50;5039865;28;20386;-69
2021/12/08 00:06:45;;;;;;;43.00;18.33;;;;;;;1.63;69.72;98987.13;5034310;28;20042;-70
2021/12/08 00:14:48;;;;;;;37.30;18.40;;;;;;;1.64;69.33;99007.66;5044405;28;20055;-69
2021/12/08 00:17:14;;;;;;;37.55;17.10;;;;;;;1.68;69.09;99008.81;5042770;28;20049;-68
2021/12/08 00:19:40;;;;;;;38.22;17.33;;;;;;;1.64;69.31;99014.91;5037515;28;20477;-69
2021/12/08 00:22:07;;;;;;;33.00;17.27;;;;;;;1.64;69.32;99013.03;5038851;28;20076;-69
2021/12/08 00:24:36;;;;;;;35.92;17.05;;;;;;;1.65;68.96;99003.06;5035120;28;20037;-70
2021/12/08 00:27:03;;;;;;;34.05;16.42;;;;;;;1.63;68.89;99005.19;5034904;28;20133;-69
2021/12/08 00:29:29;;;;;;;33.63;17.50;;;;;;;1.65;68.95;99014.69;5036389;28;20076;-69
2021/12/08 00:31:56;;;;;;;32.78;15.68;;;;;;;1.67;68.82;99017.97;5039657;28;20136;-69
2021/12/08 00:34:23;;;;;;;33.97;16.08;;;;;;;1.70;68.56;99017.47;5045397;28;20064;-68
2021/12/08 00:36:51;;;;;;;31.23;16.45;;;;;;;1.67;68.43;99011.72;5043791;28;20403;-70
2021/12/08 00:39:19;;;;;;;36.03;16.85;;;;;;;1.66;68.53;99007.41;5040804;28;20056;-68
2021/12/08 00:41:45;;;;;;;32.78;16.10;;;;;;;1.73;68.38;99015.38;5038223;28;20136;-69
2021/12/08 00:44:11;;;;;;;34.67;16.40;;;;;;;1.68;68.20;99014.19;5036439;28;20152;-69
2021/12/08 00:46:37;;;;;;;35.05;17.48;;;;;;;1.71;68.53;99020.97;5037740;28;20413;-69
2021/12/08 00:49:03;;;;;;;30.63;15.57;;;;;;;1.75;68.44;99018.63;5040684;28;20143;-69
2021/12/08 00:51:30;;;;;;;32.83;15.82;;;;;;;1.76;68.51;99031.06;5031938;28;20467;-69
2021/12/08 00:53:56;;;;;;;32.20;15.55;;;;;;;1.72;68.18;99033.44;5038543;28;20391;-69
2021/12/08 00:56:27;;;;;;;33.22;15.98;;;;;;;1.68;68.15;99029.53;5045371;28;20132;-69
2021/12/08 00:58:53;;;;;;;29.33;15.10;;;;;;;1.63;68.10;99026.75;5037327;28;20132;-68
2021/12/08 01:01:19;;;;;;;28.20;15.30;;;;;;;1.67;68.00;99033.28;5040198;28;20083;-68
2021/12/08 01:03:47;;;;;;;32.17;15.82;;;;;;;1.60;68.01;99036.09;5041025;28;20045;-69
2021/12/08 01:06:13;;;;;;;29.73;14.85;;;;;;;1.57;67.71;99051.94;5020241;28;20139;-68
2021/12/08 01:08:40;;;;;;;28.40;15.15;;;;;;;1.52;67.99;99053.44;5047184;28;20141;-67
2021/12/08 01:11:10;;;;;;;34.00;15.32;;;;;;;1.49;67.91;99048.53;5043163;28;20044;-67
2021/12/08 01:13:40;;;;;;;28.90;14.40;;;;;;;1.52;67.57;99041.84;5043463;28;20067;-68
2021/12/08 01:16:07;;;;;;;31.15;14.75;;;;;;;1.49;67.60;99050.41;5046005;28;20094;-67
2021/12/08 01:18:33;;;;;;;31.10;15.05;;;;;;;1.51;67.31;99051.81;5043587;28;20045;-68
2021/12/08 01:21:08;;;;;;;26.67;13.70;;;;;;;1.51;67.26;99059.88;5038976;28;20060;-68
2021/12/08 01:23:35;;;;;;;29.73;14.65;;;;;;;1.49;67.19;99061.19;5044653;28;20397;-68
2021/12/08 01:26:01;;;;;;;31.23;14.80;;;;;;;1.48;67.19;99056.84;5050266;28;20055;-68
2021/12/08 01:28:28;;;;;;;25.58;13.13;;;;;;;1.44;66.95;99048.41;5038294;28;20132;-68
2021/12/08 01:30:56;;;;;;;27.23;13.90;;;;;;;1.48;66.83;99052.28;5037662;28;20122;-68
2021/12/08 01:33:24;;;;;;;25.75;13.70;;;;;;;1.36;66.81;99036.09;5042695;28;20049;-68
2021/12/08 01:35:51;;;;;;;31.88;13.80;;;;;;;1.42;66.60;99054.03;5034335;28;20050;-68
2021/12/08 01:38:17;;;;;;;28.63;13.73;;;;;;;1.46;66.56;99049.00;5042858;28;20091;-68
2021/12/08 01:40:43;;;;;;;27.38;12.70;;;;;;;1.43;66.43;99049.47;5045484;28;20509;-68
2021/12/08 01:43:23;;;;;;;26.20;12.77;;;;;;;1.41;66.56;99057.78;5045528;28;20040;-68
2021/12/08 01:46:00;;;;;;;23.52;12.60;;;;;;;1.35;66.24;99069.50;5042664;28;20421;-68
2021/12/08 01:48:29;;;;;;;25.15;13.00;;;;;;;1.38;66.21;99066.31;5039058;28;20187;-68
2021/12/08 01:50:59;;;;;;;27.90;12.50;;;;;;;1.36;66.07;99065.75;5045002;28;20071;-68
2021/12/08 01:53:25;;;;;;;28.83;13.15;;;;;;;1.37;66.13;99067.38;5044471;28;20048;-68
2021/12/08 01:55:54;;;;;;;25.48;12.38;;;;;;;1.41;65.85;99065.84;5046734;28;20056;-69
2021/12/08 01:58:24;;;;;;;24.35;11.93;;;;;;;1.37;65.80;99066.53;5023982;28;20049;-68
2021/12/08 02:00:53;;;;;;;23.50;12.45;;;;;;;1.29;65.78;99056.94;5044065;28;20103;-69
2021/12/08 02:03:24;;;;;;;23.05;12.63;;;;;;;1.24;65.45;99068.41;5049853;28;20049;-68
2021/12/08 02:05:52;;;;;;;28.38;11.82;;;;;;;1.24;65.53;99073.78;5041479;28;20585;-68
2021/12/08 02:08:23;;;;;;;24.92;11.88;;;;;;;1.19;65.27;99068.28;5041516;28;20042;-69
2021/12/08 02:10:49;;;;;;;26.02;12.82;;;;;;;1.15;65.28;99082.44;5045475;28;20453;-69
2021/12/08 02:13:16;;;;;;;23.58;12.20;;;;;;;1.20;65.29;99080.69;5038961;28;20579;-69
2021/12/08 02:15:42;;;;;;;31.77;12.63;;;;;;;1.19;64.99;99089.03;5044314;28;20417;-69
2021/12/08 02:18:12;;;;;;;27.83;12.65;;;;;;;1.21;64.80;99089.59;5042949;28;20513;-68
2021/12/08 02:20:38;;;;;;;25.27;11.65;;;;;;;1.20;64.80;99088.78;5042038;28;20049;-68
2021/12/08 02:23:06;;;;;;;24.88;12.73;;;;;;;1.20;64.74;99093.34;5042252;28;20639;-68
2021/12/08 02:25:32;;;;;;;24.77;12.65;;;;;;;1.09;64.38;99093.06;5043998;28;20411;-69
2021/12/08 02:28:00;;;;;;;25.30;12.27;;;;;;;1.08;64.63;99086.06;5040883;28;20045;-69
2021/12/08 02:46:51;;;;;;;25.42;11.90;;;;;;;0.92;63.81;99114.44;5041187;28;20106;-67
2021/12/08 02:49:19;;;;;;;24.58;12.02;;;;;;;0.92;63.81;99114.44;5024857;28;20561;-68
2021/12/08 02:51:47;;;;;;;23.85;12.93;;;;;;;0.84;63.86;99112.88;5043948;28;20132;-68
2021/12/08 02:54:15;;;;;;;;;;;;;;;0.81;63.73;99123.28;5042275;28;20072;-68
2021/12/08 02:56:41;;;;;;;;;;;;;;;0.80;64.03;99124.34;5042748;28;20372;-68
2021/12/08 02:59:07;;;;;;;23.73;12.45;;;;;;;0.79;63.79;99115.44;5043017;28;20019;-67
2021/12/08 03:01:34;;;;;;;26.83;13.45;;;;;;;0.87;63.74;99125.06;5038912;28;20749;-66
2021/12/08 03:04:00;;;;;;;26.20;13.05;;;;;;;0.73;63.71;99126.28;5045134;28;20056;-68
2021/12/08 03:06:26;;;;;;;26.75;13.85;;;;;;;0.76;63.72;99126.66;5044708;28;20048;-68
2021/12/08 03:09:01;;;;;;;23.23;12.75;;;;;;;0.72;63.71;99121.94;5042776;28;20095;-68
2021/12/08 03:11:30;;;;;;;27.00;13.50;;;;;;;0.71;63.83;99134.59;5040092;28;20194;-68
2021/12/08 03:14:07;;;;;;;27.05;12.60;;;;;;;0.68;63.67;99135.88;5035974;28;20056;-68
2021/12/08 03:16:34;;;;;;;28.30;14.00;;;;;;;0.69;63.81;99133.97;5045016;28;20132;-68
2021/12/08 03:19:00;;;;;;;28.65;13.65;;;;;;;0.70;63.71;99133.78;5039651;28;20037;-68
2021/12/08 03:21:31;;;;;;;24.73;13.52;;;;;;;0.72;63.49;99141.63;5039491;28;20359;-68
2021/12/08 03:26:44;;;;;;;21.77;12.35;;;;;;;0.70;63.59;99144.53;5035738;28;20037;-68
2021/12/08 03:29:21;;;;;;;23.65;13.05;;;;;;;0.66;63.63;99137.97;5040064;28;20561;-67
2021/12/08 03:31:50;;;;;;;26.73;13.00;;;;;;;0.66;63.53;99142.50;5042798;28;20123;-68
2021/12/08 03:34:19;;;;;;;27.83;12.98;;;;;;;0.61;63.58;99140.50;5041285;28;20095;-67
2021/12/08 03:36:45;;;;;;;28.23;15.02;;;;;;;0.60;63.71;99144.22;5044575;28;20044;-68
2021/12/08 03:39:14;;;;;;;27.75;13.88;;;;;;;0.61;63.57;99142.38;5040355;28;20041;-68
2021/12/08 03:41:41;;;;;;;25.52;13.32;;;;;;;0.58;63.61;99154.41;5042056;28;20042;-68
2021/12/08 03:44:10;;;;;;;26.55;13.88;;;;;;;0.57;63.66;99152.75;5048172;28;20041;-68
2021/12/08 03:46:40;;;;;;;28.48;13.82;;;;;;;0.56;63.62;99167.25;5038812;28;20520;-68
2021/12/08 03:49:10;;;;;;;26.75;13.52;;;;;;;0.53;63.80;99173.91;5004350;28;20046;-68
2021/12/08 03:51:38;;;;;;;27.00;14.40;;;;;;;0.50;63.65;99173.53;5042896;28;20457;-70
2021/12/08 03:54:04;;;;;;;26.58;13.23;;;;;;;0.53;63.49;99181.97;5041384;28;20530;-70
2021/12/08 03:56:30;;;;;;;25.00;12.90;;;;;;;0.50;63.53;99168.97;5040171;28;20399;-71
2021/12/08 03:58:57;;;;;;;27.45;13.35;;;;;;;0.48;63.42;99167.56;5033697;28;20041;-71
2021/12/08 04:01:26;;;;;;;25.80;13.13;;;;;;;0.46;63.16;99172.34;5040448;28;20046;-71
2021/12/08 04:03:52;;;;;;;23.90;12.98;;;;;;;0.55;63.32;99187.97;5043105;28;20110;-71
2021/12/08 04:07:03;;;;;;;30.80;13.85;;;;;;;0.57;63.22;99182.34;5044607;28;20056;-71
2021/12/08 04:09:17;;;;;;;34.03;13.20;;;;;;;0.47;63.14;99180.19;5036465;28;20517;-71
2021/12/08 04:11:45;;;;;;;25.25;12.77;;;;;;;0.38;63.01;99200.34;5040663;28;20040;-70
2021/12/08 04:14:18;;;;;;;27.30;12.90;;;;;;;0.28;63.11;99185.56;5043425;28;20059;-70
2021/12/08 04:16:49;;;;;;;22.98;12.70;;;;;;;0.24;63.24;99186.22;5043012;28;20044;-70
2021/12/08 04:19:18;;;;;;;24.33;12.38;;;;;;;0.23;62.91;99188.06;5034716;28;20077;-70
2021/12/08 04:21:46;;;;;;;23.77;13.20;;;;;;;0.24;62.93;99195.13;5040628;28;20041;-70
2021/12/08 04:24:13;;;;;;;26.48;13.45;;;;;;;0.23;62.85;99198.81;5050712;28;20122;-70
2021/12/08 04:26:50;;;;;;;25.95;13.23;;;;;;;0.19;62.86;99196.81;5044383;28;20049;-70
2021/12/08 04:29:19;;;;;;;27.40;13.38;;;;;;;0.06;62.87;99190.53;5045267;28;20537;-73
2021/12/08 04:31:47;;;;;;;26.00;13.80;;;;;;;0.21;62.79;99208.97;5046577;28;20087;-72
2021/12/08 04:34:19;;;;;;;29.63;13.40;;;;;;;0.25;62.67;99209.38;5038209;28;20081;-72
2021/12/08 04:36:48;;;;;;;27.58;13.70;;;;;;;0.22;62.68;99215.19;5034960;28;20054;-73
2021/12/08 04:39:21;;;;;;;27.95;14.07;;;;;;;0.22;62.80;99207.13;5038999;28;20049;-71
2021/12/08 04:41:54;;;;;;;31.05;15.13;;;;;;;0.26;62.60;99225.31;5038763;28;20048;-70
2021/12/08 04:44:32;;;;;;;27.27;13.45;;;;;;;0.24;62.72;99221.19;5038129;28;20247;-70
2021/12/08 05:08:56;;;;;;;27.85;14.25;;;;;;;0.11;61.49;99249.00;5052654;28;20076;-72
2021/12/08 05:11:23;;;;;;;;;;;;;;;0.04;61.51;99265.19;5040245;28;20048;-71
2021/12/08 05:13:54;;;;;;;29.55;14.07;;;;;;;0.02;61.45;99253.84;5040715;28;19974;-71
2021/12/08 05:16:23;;;;;;;27.13;13.77;;;;;;;0.03;61.29;99258.19;5050482;28;20052;-71
2021/12/08 05:18:51;;;;;;;28.85;14.32;;;;;;;-0.01;61.37;99256.94;5037788;28;20512;-69
2021/12/08 05:21:24;;;;;;;32.53;14.35;;;;;;;-0.05;61.18;99247.69;5042939;28;20055;-68
2021/12/08 05:23:54;;;;;;;26.20;13.68;;;;;;;-0.04;61.14;99249.31;5040379;28;20049;-68
2021/12/08 05:26:24;;;;;;;27.00;14.15;;;;;;;-0.05;60.86;99263.81;5047186;28;20469;-69
2021/12/08 05:28:53;;;;;;;29.00;14.88;;;;;;;-0.11;60.92;99257.44;5040885;28;20127;-70
2021/12/08 05:31:25;;;;;;;27.48;14.23;;;;;;;-0.09;60.88;99278.72;5037859;28;20045;-69
2021/12/08 05:33:52;;;;;;;30.77;14.38;;;;;;;-0.12;60.78;99274.59;5039961;28;20132;-69
2021/12/08 05:36:18;;;;;;;29.27;14.15;;;;;;;-0.12;60.44;99284.53;5025925;28;20052;-68
2021/12/08 05:38:44;;;;;;;30.95;14.30;;;;;;;-0.10;60.68;99282.47;5017021;28;20099;-68
2021/12/08 05:41:14;;;;;;;32.17;15.43;;;;;;;-0.19;60.61;99288.09;5043849;28;20049;-68
2021/12/08 05:43:40;;;;;;;30.23;14.48;;;;;;;-0.19;60.53;99290.78;5033873;28;20052;-69
2021/12/08 05:46:08;;;;;;;29.73;14.23;;;;;;;-0.25;60.62;99285.44;5045007;28;20049;-68
2021/12/08 05:48:36;;;;;;;27.75;14.18;;;;;;;-0.22;60.60;99291.22;5021459;28;20187;-69
2021/12/08 05:51:07;;;;;;;31.30;15.25;;;;;;;-0.18;60.46;99294.28;5040448;28;20136;-69
2021/12/08 05:53:35;;;;;;;28.42;13.68;;;;;;;-0.15;60.37;99297.38;5022668;28;20056;-68
2021/12/08 05:56:02;;;;;;;;;;;;;;;-0.22;60.19;99291.22;5063773;28;20383;-69
2021/12/08 05:58:29;;;;;;;28.52;14.57;;;;;;;-0.25;60.24;99293.50;5049575;28;20043;-69
2021/12/08 06:00:59;;;;;;;31.95;13.98;;;;;;;-0.26;60.23;99299.91;5050894;28;20123;-69
2021/12/08 06:03:25;;;;;;;30.35;14.38;;;;;;;-0.26;60.15;99300.75;5050605;28;20055;-69
2021/12/08 06:05:55;;;;;;;29.50;13.65;;;;;;;-0.27;60.20;99295.56;5044799;28;20045;-69
2021/12/08 06:08:22;;;;;;;33.72;15.18;;;;;;;-0.26;60.25;99303.44;5046829;28;20049;-69
2021/12/08 06:10:49;;;;;;;33.50;15.43;;;;;;;-0.28;60.07;99305.53;5032736;28;20045;-69
2021/12/08 06:13:18;;;;;;;30.58;14.18;;;;;;;-0.27;60.08;99301.78;5030833;28;20045;-67
2021/12/08 06:15:46;;;;;;;31.20;14.60;;;;;;;-0.25;60.11;99309.63;5029577;28;20053;-68
2021/12/08 06:18:12;;;;;;;35.33;15.75;;;;;;;-0.41;60.21;99316.34;5047299;28;20044;-68
2021/12/08 06:20:39;;;;;;;31.20;15.57;;;;;;;-0.42;60.25;99318.19;5052680;28;20052;-69
2021/12/08 06:23:10;;;;;;;37.30;13.73;;;;;;;-0.41;60.03;99311.75;5047867;28;20087;-68
2021/12/08 06:25:37;;;;;;;29.90;13.93;;;;;;;-0.56;60.06;99301.31;5050372;28;20595;-68
2021/12/08 06:28:03;;;;;;;33.00;14.40;;;;;;;-0.45;59.76;99329.34;5052597;28;20140;-68
2021/12/08 06:30:32;;;;;;;30.90;13.88;;;;;;;-0.41;59.63;99330.56;5052382;28;20307;-68
2021/12/08 06:32:59;;;;;;;30.67;14.13;;;;;;;-0.44;59.63;99339.06;5034818;28;20041;-70
2021/12/08 06:35:29;;;;;;;31.75;14.43;;;;;;;-0.48;59.64;99335.97;5042486;28;20417;-70
2021/12/08 06:37:55;;;;;;;30.05;14.73;;;;;;;-0.45;59.66;99348.16;5052468;28;20151;-69
2021/12/08 06:40:28;;;;;;;29.02;14.48;;;;;;;-0.45;59.78;99349.00;5037892;28;20052;-70
2021/12/08 06:42:57;;;;;;;29.60;13.88;;;;;;;-0.40;59.55;99350.22;5038972;28;20556;-68
2021/12/08 06:45:26;;;;;;;29.45;13.80;;;;;;;-0.50;59.55;99354.16;5041713;28;20044;-70
2021/12/08 06:47:54;;;;;;;35.45;14.95;;;;;;;-0.51;59.60;99359.78;5041295;28;20063;-70
2021/12/08 06:50:26;;;;;;;33.83;14.88;;;;;;;-0.50;59.53;99350.69;5039614;28;20059;-70
2021/12/08 06:52:53;;;;;;;33.90;14.55;;;;;;;-0.49;59.50;99368.44;5032723;28;20140;-70
2021/12/08 06:55:22;;;;;;;32.58;14.02;;;;;;;-0.70;59.45;99361.47;5033324;28;20057;-70
2021/12/08 06:57:56;;;;;;;30.27;14.73;;;;;;;-0.60;59.37;99380.69;5043280;28;20498;-70
2021/12/08 07:00:45;;;;;;;33.13;14.68;;;;;;;-0.70;59.69;99388.34;5045208;28;20045;-70
2021/12/08 07:08:28;;;;;;;30.33;14.40;;;;;;;-0.63;59.45;99389.97;5042845;28;20045;-68
2021/12/08 07:10:56;;;;;;;30.40;14.15;;;;;;;-0.77;59.59;99382.97;5041224;28;20037;-69
2021/12/08 07:13:26;;;;;;;32.88;14.43;;;;;;;-0.78;59.59;99387.53;5036289;28;20041;-69
2021/12/08 07:15:57;;;;;;;29.98;14.88;;;;;;;-0.69;59.46;99398.03;5032396;28;20057;-72
2021/12/08 07:18:26;;;;;;;37.50;14.80;;;;;;;-0.69;59.45;99390.81;5019505;28;20095;-69
2021/12/08 07:20:56;;;;;;;31.05;13.15;;;;;;;-0.72;59.31;99393.91;5041862;28;20068;-70
2021/12/08 07:23:26;;;;;;;35.58;14.68;;;;;;;-0.84;59.56;99396.41;5030864;28;20049;-68
2021/12/08 07:25:55;;;;;;;31.35;13.63;;;;;;;-0.81;59.39;99393.31;5038521;28;20073;-69
2021/12/08 07:28:25;;;;;;;32.00;13.90;;;;;;;-0.76;59.24;99392.69;5034064;28;20045;-70
2021/12/08 07:30:55;;;;;;;30.85;13.27;;;;;;;-0.81;59.06;99390.63;5042837;28;20104;-70
2021/12/08 07:33:21;;;;;;;30.15;13.52;;;;;;;-0.81;59.05;99381.75;5044674;28;20051;-70
2021/12/08 07:35:50;;;;;;;31.48;13.35;;;;;;;-0.84;59.05;99393.72;5039100;28;20049;-70
2021/12/08 07:38:21;;;;;;;29.52;13.73;;;;;;;-0.85;59.28;99392.09;5029469;28;20072;-70
2021/12/08 07:40:52;;;;;;;31.50;14.00;;;;;;;-0.92;58.94;99388.59;5038974;28;20073;-68
2021/12/08 07:43:22;;;;;;;29.08;12.90;;;;;;;-0.91;58.82;99391.06;5039388;28;20378;-69
2021/12/08 07:46:02;;;;;;;31.48;13.40;;;;;;;-0.97;58.96;99391.91;5031923;28;20049;-70
2021/12/08 07:48:34;;;;;;;29.80;12.50;;;;;;;-0.94;58.79;99404.91;5037958;28;20442;-69
2021/12/08 07:51:05;;;;;;;29.63;13.07;;;;;;;-1.01;58.74;99412.16;5045276;28;20549;-68
2021/12/08 07:53:32;;;;;;;29.75;13.85;;;;;;;-1.03;58.91;99400.78;5034450;28;20452;-69
2021/12/08 07:56:03;;;;;;;35.78;14.43;;;;;;;-1.00;58.87;99413.81;5051921;28;20045;-70
2021/12/08 07:58:32;;;;;;;32.42;13.05;;;;;;;-0.89;58.68;99410.47;5045313;28;20042;-70
2021/12/08 08:01:02;;;;;;;32.55;13.18;;;;;;;-0.93;58.65;99414.59;5039419;28;20041;-70
2021/12/08 08:03:31;;;;;;;30.77;13.75;;;;;;;-0.95;58.57;99413.16;5038282;28;20095;-70
2021/12/08 08:05:58;;;;;;;29.25;12.55;;;;;;;-0.90;58.61;99416.06;5046115;28;20238;-70
2021/12/08 08:08:25;;;;;;;31.73;13.23;;;;;;;-0.93;58.54;99411.91;5037125;28;20420;-68
2021/12/08 08:10:59;;;;;;;34.35;13.10;;;;;;;-1.04;58.61;99421.44;5035280;28;20107;-70
2021/12/08 08:13:26;;;;;;;33.60;13.02;;;;;;;-1.02;58.75;99426.56;5038975;28;20053;-69
2021/12/08 08:15:57;;;;;;;31.27;13.68;;;;;;;-1.09;58.64;99421.25;5047509;28;20468;-69
2021/12/08 08:18:28;;;;;;;33.78;13.65;;;;;;;-1.00;58.34;99428.03;5048655;28;20119;-68
2021/12/08 08:20:58;;;;;;;28.52;13.38;;;;;;;-1.06;58.71;99423.50;5034166;28;20507;-72
2021/12/08 08:23:27;;;;;;;31.67;12.82;;;;;;;-1.03;58.60;99430.31;5041932;28;20459;-71
2021/12/08 08:25:55;;;;;;;32.97;14.18;;;;;;;-1.01;58.69;99428.25;5036975;28;20049;-70
2021/12/08 08:28:22;;;;;;;29.45;12.70;;;;;;;-0.95;58.40;99435.47;5023377;28;20049;-70
2021/12/08 08:30:53;;;;;;;30.60;13.45;;;;;;;-0.95;58.39;99435.47;5045335;28;20128;-68
2021/12/08 08:33:20;;;;;;;34.72;14.52;;;;;;;-0.98;58.48;99435.06;5047965;28;20048;-72
2021/12/08 08:35:50;;;;;;;30.48;12.73;;;;;;;-0.97;58.50;99436.69;5043536;28;20067;-69
2021/12/08 08:38:21;;;;;;;31.00;12.85;;;;;;;-1.01;58.54;99430.94;5038310;28;20739;-69
2021/12/08 08:40:49;;;;;;;36.67;13.25;;;;;;;-1.00;58.36;99424.53;5038965;28;20071;-68
2021/12/08 08:43:17;;;;;;;33.60;13.52;;;;;;;-0.92;58.46;99428.88;5028691;28;20049;-70
2021/12/08 08:45:46;;;;;;;;;;;;;;;-0.97;58.29;99432.16;5033990;28;20045;-69
2021/12/08 08:48:15;;;;;;;31.73;12.60;;;;;;;-1.02;58.25;99415.84;5041990;28;19931;-68
2021/12/08 08:50:47;;;;;;;32.50;13.85;;;;;;;-1.04;58.51;99425.97;5038259;28;20091;-69
2021/12/08 08:53:18;;;;;;;29.08;12.77;;;;;;;-1.06;58.28;99423.50;5045243;28;20046;-69
2021/12/08 08:55:49;;;;;;;29.42;13.50;;;;;;;-1.05;58.30;99421.63;5046029;28;20139;-68
2021/12/08 08:58:15;;;;;;;31.30;13.27;;;;;;;-1.03;58.47;99422.25;5044715;28;20513;-69
2021/12/08 09:00:44;;;;;;;29.80;13.10;;;;;;;-1.17;58.64;99410.72;5052001;28;20045;-69
2021/12/08 09:03:15;;;;;;;37.65;14.00;;;;;;;-1.09;58.41;99429.28;5046749;28;20052;-68
2021/12/08 09:05:44;;;;;;;33.67;13.20;;;;;;;-1.09;58.64;99429.28;5045851;28;20041;-73
2021/12/08 09:08:13;;;;;;;25.95;13.13;;;;;;;-1.01;58.38;99433.63;5040984;28;20064;-72
2021/12/08 09:10:47;;;;;;;27.88;12.80;;;;;;;-1.00;58.30;99427.22;5048631;28;20060;-72
2021/12/08 09:13:17;;;;;;;32.70;13.63;;;;;;;-0.98;58.26;99429.69;5035832;28;20049;-73
2021/12/08 09:15:48;;;;;;;35.50;13.73;;;;;;;-1.01;58.14;99423.69;5042166;28;20048;-73
2021/12/08 09:18:18;;;;;;;31.85;13.38;;;;;;;-0.93;58.32;99428.03;5038785;28;20388;-73
2021/12/08 09:20:55;;;;;;;32.28;13.48;;;;;;;-0.98;58.35;99430.53;5036098;28;20361;-73
2021/12/08 09:23:27;;;;;;;32.17;13.65;;;;;;;-1.05;58.46;99425.16;5038907;28;20598;-73
2021/12/08 09:25:57;;;;;;;33.60;13.65;;;;;;;-1.09;58.64;99413.19;5040985;28;20416;-74
2021/12/08 09:28:34;;;;;;;32.45;13.32;;;;;;;-1.14;58.73;99421.03;5036429;28;20171;-72
2021/12/08 09:31:06;;;;;;;36.85;14.65;;;;;;;-1.05;58.71;99430.53;5040649;28;20049;-72
2021/12/08 09:33:39;;;;;;;34.03;13.52;;;;;;;-1.11;58.61;99417.91;5034398;28;20044;-72
2021/12/08 09:36:11;;;;;;;34.28;13.23;;;;;;;-1.02;58.53;99415.84;5046498;28;20136;-71
2021/12/08 09:38:40;;;;;;;32.85;14.55;;;;;;;-1.06;58.39;99417.31;5039660;28;20049;-72
2021/12/08 09:41:13;;;;;;;36.08;14.25;;;;;;;-1.07;58.35;99411.13;5047271;28;20041;-72
2021/12/08 09:43:42;;;;;;;35.08;14.27;;;;;;;-1.00;58.40;99419.97;5050078;28;20355;-73
2021/12/08 09:46:12;;;;;;;34.67;14.00;;;;;;;-1.00;58.23;99417.28;5045552;28;20061;-73
2021/12/08 09:48:39;;;;;;;36.35;14.05;;;;;;;-1.10;58.45;99424.94;5021169;28;20414;-73
2021/12/08 09:51:05;;;;;;;40.08;15.07;;;;;;;-1.07;58.49;99426.38;5050267;28;20044;-74
2021/12/08 09:53:33;;;;;;;42.65;15.00;;;;;;;-1.06;58.30;99428.88;5045387;28;20052;-73
2021/12/08 09:56:01;;;;;;;33.45;13.30;;;;;;;-1.09;58.15;99431.13;5045484;28;20138;-73
2021/12/08 09:58:29;;;;;;;37.70;14.02;;;;;;;-1.02;58.11;99431.94;5048823;28;20072;-73
2021/12/08 10:00:59;;;;;;;46.88;16.05;;;;;;;-1.03;58.24;99425.78;5038875;28;20661;-73
2021/12/08 10:03:26;;;;;;;37.00;15.70;;;;;;;-1.19;58.17;99416.28;5046759;28;20065;-73
2021/12/08 10:05:52;;;;;;;42.25;15.00;;;;;;;-1.05;58.20;99433.22;5040579;28;20047;-74
2021/12/08 10:08:19;;;;;;;35.75;14.65;;;;;;;-1.02;58.01;99440.84;5033642;28;20049;-73
2021/12/08 10:10:45;;;;;;;40.47;16.15;;;;;;;-1.06;58.10;99431.56;5039706;28;20045;-73
2021/12/08 10:13:12;;;;;;;38.00;14.80;;;;;;;-1.18;58.32;99430.53;5027634;28;20168;-74
2021/12/08 10:15:40;;;;;;;38.65;15.73;;;;;;;-1.16;58.31;99434.66;5036162;28;20697;-74
2021/12/08 10:18:08;;;;;;;;;;;;;;;-1.13;58.19;99433.41;5040448;28;20080;-72
2021/12/08 10:20:38;;;;;;;39.95;14.38;;;;;;;-1.19;57.91;99423.50;5038841;28;19929;-73
2021/12/08 10:23:30;;;;;;;36.38;14.63;;;;;;;-1.18;57.93;99433.22;5037005;28;20590;-73
2021/12/08 10:25:59;;;;;;;34.85;13.98;;;;;;;-1.23;57.91;99446.44;5027153;28;20057;-73
2021/12/08 10:28:27;;;;;;;44.15;15.95;;;;;;;-1.26;58.09;99444.97;5045961;28;20056;-74
2021/12/08 10:31:02;;;;;;;39.75;15.73;;;;;;;-1.37;58.03;99435.69;5045278;28;20521;-74
2021/12/08 10:39:05;;;;;;;40.20;15.52;;;;;;;-1.43;58.06;99449.91;5047697;28;20190;-73
2021/12/08 10:41:44;;;;;;;41.67;14.80;;;;;;;-1.48;57.93;99447.84;5055000;28;20052;-73
2021/12/08 10:44:10;;;;;;;43.35;14.93;;;;;;;-1.43;57.99;99466.00;5035986;28;20052;-74
2021/12/08 10:46:38;;;;;;;44.08;15.93;;;;;;;-1.48;57.77;99463.09;5026971;28;20045;-73
2021/12/08 10:49:15;;;;;;;41.78;15.73;;;;;;;-1.47;57.85;99462.91;5024377;28;20060;-74
2021/12/08 10:54:33;;;;;;;46.30;15.95;;;;;;;-1.53;57.79;99455.66;5043711;28;20052;-73
2021/12/08 10:57:01;;;;;;;44.17;16.55;;;;;;;-1.51;57.39;99461.66;5056412;28;20052;-71
2021/12/08 10:59:48;;;;;;;41.28;15.68;;;;;;;-1.56;57.44;99469.47;5043237;28;20053;-70
2021/12/08 11:02:37;;;;;;;42.25;16.15;;;;;;;-1.58;57.24;99469.69;5039113;28;20038;-70
2021/12/08 11:05:06;;;;;;;53.72;17.27;;;;;;;-1.56;57.05;99477.53;5044298;28;20054;-70
2021/12/08 11:07:33;;;;;;;43.60;16.20;;;;;;;-1.57;57.08;99486.59;5035284;28;20140;-70
2021/12/08 11:10:16;;;;;;;46.92;17.67;;;;;;;-1.60;57.00;99493.19;5047128;28;20521;-70
2021/12/08 11:12:42;;;;;;;50.22;18.20;;;;;;;-1.55;56.84;99484.53;5034006;28;20041;-69
2021/12/08 11:15:22;;;;;;;48.92;17.10;;;;;;;-1.54;57.09;99482.69;5035812;28;20052;-70
2021/12/08 11:18:07;;;;;;;49.20;16.63;;;;;;;-1.55;57.00;99473.00;5038593;28;20037;-70
2021/12/08 11:20:42;;;;;;;49.72;17.70;;;;;;;-1.58;57.08;99472.34;5041185;28;20045;-69
2021/12/08 11:23:10;;;;;;;48.92;18.33;;;;;;;-1.59;56.86;99477.94;5037694;28;20069;-69
2021/12/08 11:25:40;;;;;;;55.63;19.17;;;;;;;-1.67;57.27;99462.88;5048810;28;20053;-70
2021/12/08 11:28:22;;;;;;;57.88;19.80;;;;;;;-1.75;57.52;99471.91;5044296;28;20136;-69
2021/12/08 11:30:50;;;;;;;61.50;18.38;;;;;;;-1.76;57.33;99462.22;5045840;28;20155;-70
2021/12/08 11:33:21;;;;;;;58.72;19.42;;;;;;;-1.76;57.52;99466.75;5047053;28;20463;-69
2021/12/08 11:35:47;;;;;;;55.30;17.95;;;;;;;-1.81;57.50;99461.19;5037890;28;20052;-70
2021/12/08 11:38:23;;;;;;;54.50;18.95;;;;;;;-1.80;57.53;99477.03;5042617;28;20045;-70
2021/12/08 11:40:50;;;;;;;56.57;19.27;;;;;;;-1.81;57.49;99472.72;5039237;28;20048;-69
2021/12/08 11:43:16;;;;;;;;;;;;;;;-1.82;57.47;99476.41;5035954;28;20049;-69
2021/12/08 11:45:43;;;;;;;59.13;19.27;;;;;;;-1.90;57.51;99482.78;5039591;28;20460;-70
2021/12/08 11:48:24;;;;;;;54.15;19.00;;;;;;;-1.87;57.58;99481.56;5042528;28;20059;-69
2021/12/08 11:51:09;;;;;;;59.30;19.13;;;;;;;-1.84;57.44;99477.66;5039025;28;20049;-69
2021/12/08 11:53:39;;;;;;;59.65;19.50;;;;;;;-1.81;57.32;99480.75;5038638;28;20055;-69
2021/12/08 11:56:07;;;;;;;61.03;19.20;;;;;;;-1.92;57.37;99479.47;5042692;28;20084;-71
2021/12/08 11:58:33;;;;;;;68.95;22.48;;;;;;;-1.98;57.57;99474.94;5041392;28;20077;-69
2021/12/08 12:01:02;;;;;;;59.53;19.88;;;;;;;-2.00;57.74;99482.34;5040007;28;20048;-69
2021/12/08 12:03:29;;;;;;;62.08;20.35;;;;;;;-2.13;57.78;99467.03;5044248;28;20041;-68
2021/12/08 12:05:56;;;;;;;70.72;21.00;;;;;;;-2.03;57.80;99478.22;5041675;28;20529;-68
2021/12/08 12:08:25;;;;;;;63.53;21.50;;;;;;;-2.07;57.92;99497.56;5040353;28;20045;-68
2021/12/08 12:10:53;;;;;;;71.60;21.33;;;;;;;-2.02;57.80;99513.88;5043347;28;20119;-68
2021/12/08 12:13:19;;;;;;;71.88;21.58;;;;;;;-1.97;57.60;99505.22;5045864;28;20486;-69
2021/12/08 12:15:48;;;;;;;68.03;22.33;;;;;;;-1.94;57.64;99502.16;5037850;28;20064;-69
2021/12/08 12:18:15;;;;;;;79.60;23.23;;;;;;;-1.93;57.50;99514.53;5044979;28;20079;-68
2021/12/08 12:20:45;;;;;;;77.03;22.92;;;;;;;-1.89;57.67;99516.59;5045727;28;20052;-69
2021/12/08 12:23:36;;;;;;;80.05;22.92;;;;;;;-1.88;57.50;99518.25;5041685;28;20149;-68
2021/12/08 12:26:14;;;;;;;80.32;22.70;;;;;;;-1.94;57.51;99507.53;5039456;28;20049;-68
2021/12/08 12:29:06;;;;;;;77.97;23.05;;;;;;;-1.88;57.33;99514.75;5032196;28;20056;-69
2021/12/08 12:31:44;;;;;;;87.30;22.63;;;;;;;-1.94;57.44;99515.56;5036453;28;20049;-69
2021/12/08 12:34:23;;;;;;;;;;;;;;;-2.03;57.47;99509.53;5042748;28;20075;-69